Latest Coastal Weather Observations for Hervey Bay

IDQ60701

Issued at 7:35 am EST Saturday 23 August 2014 (issued every 10 minutes, with the page automatically refreshed every 10 minutes)

About coastal observations | Map of coastal stations | Coastal observations for QLD | Marine services | Other Formats
Station Details ID: 040405 Name: HERVEY BAY AIRPORT Lat: -25.32 Lon: 152.88 Height: 12.98 m
Data from the previous 72 hours. | See also: Recent months at Hervey Bay
Date/Time
EST
Temp

°C
Wind Pressure Rain
since 9am
mm
Weather Cloud Vis
km
Sea
Height
m
Swell
Dir
 
Speed
knots
Gust
knots
hPa Trend Height
m
Period
s
Dir
23/07:30am 15.6 SSW 9 17 1019.2 - 55.4 - Cloudy 10 - - - -
23/07:00am 15.5 SSW 9 13 1019.2 - 55.4 - Cloudy 10 - - - -
23/06:42am 15.4 SSW 9 14 1019.1 - 55.4 - Partly cloudy 10 - - - -
23/06:30am 15.4 SSW 9 13 1019.0 - 55.4 - Partly cloudy 10 - - - -
23/06:22am 15.4 SSW 9 14 1018.9 - 55.4 - Partly cloudy 10 - - - -
23/06:00am 15.3 SSW 10 16 1018.7 - 55.4 - Cloudy 10 - - - -
23/05:30am 15.4 SSW 10 16 1018.6 - 55.4 - Cloudy 10 - - - -
23/05:18am 15.4 SSW 10 16 1018.5 - 55.4 - Cloudy 10 - - - -
23/05:00am 15.3 SSW 9 14 1018.3 - 55.4 - Cloudy 10 - - - -
23/04:30am 15.2 SSW 10 15 1018.1 - 55.4 - Partly cloudy 10 - - - -
23/04:00am 15.2 S 9 15 1018.2 - 55.4 - Cloudy 10 - - - -
23/03:30am 15.1 SSW 10 14 1018.5 - 55.4 - Partly cloudy 10 - - - -
23/03:00am 15.0 SSW 11 15 1018.7 - 55.4 Recent precip. Cloudy 10 - - - -
23/02:55am 15.0 SSW 10 14 1018.8 - 55.4 - Partly cloudy 10 - - - -
23/02:30am 14.9 SSW 10 15 1019.0 - 55.4 - Partly cloudy 10 - - - -
23/02:00am 14.8 SSW 10 14 1019.2 - 55.2 - Partly cloudy 10 - - - -
23/01:30am 14.8 SSW 9 14 1019.5 - 55.2 - Partly cloudy 10 - - - -
23/01:00am 14.9 SSW 10 14 1020.0 - 55.2 - Partly cloudy 10 - - - -
23/12:42am 15.0 SSW 10 15 1020.2 - 55.2 - Partly cloudy 10 - - - -
23/12:30am 15.0 SSW 10 14 1020.3 - 55.2 - Partly cloudy 10 - - - -
23/12:11am 15.1 SSW 10 15 1020.3 - 55.2 - Partly cloudy 10 - - - -
23/12:04am 15.2 SSW 10 14 1020.4 - 55.2 - Partly cloudy 10 - - - -
23/12:00am 15.2 SSW 11 18 1020.4 - 55.2 - Cloudy 10 - - - -
 
Date/Time
EST
Temp

°C
Wind Pressure Rain
since 9am
mm
Weather Cloud Vis
km
Sea
Height
m
Swell
Dir
 
Speed
knots
Gust
knots
hPa Trend Height
m
Period
s
Dir
22/11:30pm 15.2 SSW 11 17 1020.8 - 55.2 - Partly cloudy 10 - - - -
22/11:00pm 15.2 SSW 10 15 1020.8 - 55.2 - Cloudy 10 - - - -
22/10:30pm 15.3 SSW 10 15 1021.0 - 55.0 - Partly cloudy 10 - - - -
22/10:22pm 15.3 SSW 10 15 1021.2 - 55.0 - Partly cloudy 10 - - - -
22/10:00pm 15.2 S 13 19 1020.9 - 54.8 - Partly cloudy 10 - - - -
22/09:30pm 15.1 S 12 22 1021.4 - 54.0 - Partly cloudy 10 - - - -
22/09:14pm 15.0 SSE 16 27 1020.6 - 53.6 - Partly cloudy 8 - - - -
22/09:00pm 14.9 S 11 21 1021.6 - 53.0 Rain Cloudy 10 - - - -
22/08:48pm 14.9 S 10 17 1021.9 - 52.8 - Partly cloudy 9 - - - -
22/08:30pm 14.7 S 7 12 1022.1 - 52.4 - Partly cloudy 6 - - - -
22/08:24pm 14.6 S 6 10 1022.2 - 51.8 - Partly cloudy 7 - - - -
22/08:01pm 14.5 S 7 11 1022.0 - 51.2 - Partly cloudy 5 - - - -
22/08:00pm 14.5 S 8 11 1022.0 - 51.2 - Partly cloudy 6 - - - -
22/07:30pm 14.4 SSW 9 14 1021.5 - 50.6 - Partly cloudy 9 - - - -
22/07:22pm 14.3 SSW 10 15 1021.6 - 50.4 - Partly cloudy 10 - - - -
22/07:01pm 14.3 SSW 12 19 1021.3 - 50.2 - Partly cloudy 10 - - - -
22/07:00pm 14.3 SSW 12 19 1021.3 - 50.2 - Partly cloudy 10 - - - -
22/06:30pm 14.7 SSW 12 17 1021.1 - 49.8 - Partly cloudy 9 - - - -
22/06:14pm 14.7 SW 9 14 1021.3 - 49.2 - Partly cloudy 7 - - - -
22/06:00pm 14.8 SW 10 15 1020.9 - 48.6 Rain Cloudy 5 - - - -
22/05:59pm 14.8 SSW 10 15 1020.9 - 48.6 - Partly cloudy 5 - - - -
22/05:52pm 14.9 SW 10 13 1020.8 - 48.0 - Partly cloudy 7 - - - -
22/05:30pm 15.2 SSW 12 17 1020.8 - 46.2 - Partly cloudy 3 - - - -
22/05:29pm 15.2 SSW 12 17 1020.8 - 46.2 - Partly cloudy 3 - - - -
22/05:25pm 15.2 SSW 12 17 1020.8 - 45.2 - Partly cloudy 5 - - - -
22/05:19pm 15.3 SSW 12 18 1020.7 - 44.2 - Partly cloudy 7 - - - -
22/05:05pm 15.5 SSW 11 17 1020.6 - 43.2 - Partly cloudy 5 - - - -
22/05:04pm 15.5 SSW 11 17 1020.6 - 43.0 - Partly cloudy 5 - - - -
22/05:00pm 15.5 SSW 11 16 1020.7 - 42.4 - Partly cloudy 8 - - - -
22/04:30pm 15.8 SSW 9 13 1020.7 - 41.8 - Partly cloudy 8 - - - -
22/04:00pm 16.1 SSW 10 15 1020.4 - 40.8 - Partly cloudy 10 - - - -
22/03:59pm 16.1 SSW 10 15 1020.4 - 40.8 - Partly cloudy 10 - - - -
22/03:44pm 16.3 S 10 14 1020.3 - 40.4 - Partly cloudy 5 - - - -
22/03:43pm 16.5 S 10 13 1020.3 - 40.4 - Partly cloudy 6 - - - -
22/03:30pm 17.0 S 8 14 1020.4 - 39.4 - Partly cloudy 6 - - - -
22/03:19pm 17.2 SSW 8 13 1020.3 - 38.6 - Partly cloudy 10 - - - -
22/03:18pm 17.1 SSW 8 13 1020.3 - 38.6 - Partly cloudy 10 - - - -
22/03:01pm 16.9 S 6 9 1020.3 - 38.0 - Partly cloudy 2 - - - -
22/03:00pm 16.8 S 6 10 1020.3 - 38.0 Rain Cloudy 2 - - - -
22/02:30pm 16.4 S 9 24 1020.6 - 30.0 - Partly cloudy 4 - - - -
22/02:06pm 17.8 SSE 7 11 1020.4 - 28.2 - Partly cloudy 10 - - - -
22/02:00pm 17.7 SSE 8 12 1020.3 - 28.0 - Partly cloudy 10 - - - -
22/01:42pm 18.2 SSE 8 11 1020.6 - 25.0 - Partly cloudy 3 - - - -
22/01:30pm 18.5 S 7 10 1020.3 - 22.0 - Partly cloudy 10 - - - -
22/01:00pm 18.5 S 6 9 1020.5 - 21.8 - Partly cloudy 10 - - - -
22/12:30pm 18.4 S 7 11 1021.0 - 21.4 - Partly cloudy 10 - - - -
22/12:00pm 18.2 SSE 5 12 1021.6 - 21.2 Rain Cloudy 9 - - - -
22/11:52am 18.0 SSE 5 7 1021.7 - 21.0 - Partly cloudy 8 - - - -
22/11:33am 17.2 CALM 0 2 1022.1 - 20.2 - Partly cloudy 5 - - - -
22/11:30am 17.0 W 1 3 1022.2 - 20.0 - Partly cloudy 7 - - - -
22/11:17am 17.1 S 3 5 1022.2 - 19.6 - Partly cloudy 9 - - - -
22/11:00am 16.7 W 6 11 1022.5 - 19.2 - Partly cloudy 0.9 - - - -
22/10:38am 17.1 SSW 5 8 1022.9 - 3.4 - Partly cloudy 2 - - - -
22/10:30am 17.3 SSW 5 8 1022.8 - 1.4 - Partly cloudy 5 - - - -
22/10:24am 17.2 S 6 10 1023.0 - 0.8 - Partly cloudy 5 - - - -
22/10:00am 17.7 S 9 14 1022.8 - 0.0 - Partly cloudy 10 - - - -
22/09:53am 17.6 S 9 14 1022.8 - 0.0 - Partly cloudy 10 - - - -
22/09:30am 17.3 SSW 9 13 1022.7 - 0.0 - Partly cloudy 10 - - - -
22/09:00am 16.4 SSW 9 14 1022.9 - 5.8 Rain Cloudy 7 - - - -
22/08:30am 16.1 SSW 9 13 1022.7 - 5.4 - Cloudy 10 - - - -
22/08:00am 15.5 S 10 17 1022.5 - 5.4 - Partly cloudy 10 - - - -
22/07:30am 15.3 S 10 15 1022.2 - 5.2 - Partly cloudy 9 - - - -
22/07:00am 15.1 SSW 10 14 1022.0 - 5.0 - Partly cloudy 9 - - - -
22/06:30am 14.9 SSW 10 15 1021.8 - 5.0 - Partly cloudy 10 - - - -
22/06:00am 15.1 SSW 10 14 1021.4 - 4.8 - Cloudy 10 - - - -
22/05:30am 15.1 S 9 14 1021.1 - 4.8 - Partly cloudy 10 - - - -
22/05:24am 15.1 S 9 13 1021.0 - 4.8 - Partly cloudy 10 - - - -
22/05:22am 15.1 S 9 13 1021.0 - 4.8 - Partly cloudy 10 - - - -
22/05:00am 15.0 S 9 13 1020.9 - 4.8 - Partly cloudy 10 - - - -
22/04:59am 15.0 S 9 14 1020.8 - 4.8 - Partly cloudy 10 - - - -
22/04:40am 14.9 SSW 9 13 1020.8 - 4.8 - Partly cloudy 10 - - - -
22/04:30am 14.9 S 9 16 1020.7 - 4.8 - Partly cloudy 10 - - - -
22/04:00am 15.0 SSW 11 17 1020.7 - 4.8 - Cloudy 10 - - - -
22/03:30am 15.0 SSW 11 16 1020.6 - 4.6 - Partly cloudy 10 - - - -
22/03:25am 15.0 SSW 12 17 1020.5 - 4.6 - Partly cloudy 9 - - - -
22/03:03am 15.1 SSW 12 19 1020.8 - 3.4 - Partly cloudy 8 - - - -
22/03:00am 15.2 SSW 12 19 1020.8 - 3.0 Rain Cloudy 8 - - - -
22/02:48am 15.3 S 12 17 1020.5 - 2.2 - Partly cloudy 5 - - - -
22/02:41am 15.4 SSW 12 17 1020.7 - 1.0 - Partly cloudy 5 - - - -
22/02:30am 16.0 SSW 10 16 1021.0 - 0.0 - Partly cloudy 10 - - - -
22/02:00am 16.0 SSW 8 11 1021.4 - 0.0 - Partly cloudy 10 - - - -
22/01:54am 16.0 SSW 8 11 1021.5 - 0.0 - Cloudy 10 - - - -
22/01:42am 16.0 SSW 10 16 1021.4 - 0.0 - Cloudy 5 - - - -
22/01:30am 16.1 SSW 9 13 1021.5 - 0.0 - Partly cloudy 10 - - - -
22/01:07am 16.1 SSW 8 13 1021.6 - 0.0 - Partly cloudy 10 - - - -
22/01:00am 16.1 SSW 8 13 1021.6 - 0.0 - Partly cloudy 10 - - - -
22/12:30am 16.3 SSW 8 11 1021.8 - 0.0 - Cloudy 10 - - - -
22/12:00am 16.2 SSW 8 11 1022.0 - 0.0 - Cloudy 10 - - - -
 
Date/Time
EST
Temp

°C
Wind Pressure Rain
since 9am
mm
Weather Cloud Vis
km
Sea
Height
m
Swell
Dir
 
Speed
knots
Gust
knots
hPa Trend Height
m
Period
s
Dir
21/11:30pm 16.4 SSW 9 13 1022.0 - 0.0 - Partly cloudy 10 - - - -
21/11:00pm 16.5 SSW 10 14 1021.9 - 0.0 - Partly cloudy 10 - - - -
21/10:30pm 16.6 SSW 8 11 1022.1 - 0.0 - Partly cloudy 10 - - - -
21/10:00pm 16.7 S 8 12 1021.9 - 0.0 - Partly cloudy 10 - - - -
21/09:30pm 16.9 S 10 15 1021.9 - 0.0 - Partly cloudy 10 - - - -
21/09:00pm 17.0 S 9 13 1021.9 - 0.0 - Cloudy 10 - - - -
21/08:30pm 17.1 S 7 12 1021.6 - 0.0 - Partly cloudy 10 - - - -
21/08:00pm 17.0 S 8 13 1021.4 - 0.0 - - 10 - - - -
21/07:30pm 16.9 S 7 10 1021.2 - 0.0 - Partly cloudy 10 - - - -
21/07:00pm 16.9 S 8 11 1021.1 - 0.0 - - 10 - - - -
21/06:30pm 17.0 S 8 12 1020.5 - 0.0 - - 10 - - - -
21/06:00pm 17.4 S 10 15 1020.3 - 0.0 - Cloudy 10 - - - -
21/05:30pm 17.9 SE 9 12 1020.3 - 0.0 - Partly cloudy 10 - - - -
21/05:00pm 18.9 SSE 9 17 1020.0 - 0.0 - Partly cloudy 10 - - - -
21/04:30pm 19.1 S 9 17 1019.4 - 0.0 - Partly cloudy 10 - - - -
21/04:00pm 17.8 S 9 17 1019.6 - 0.0 - Partly cloudy 10 - - - -
21/03:30pm 19.7 SSE 11 19 1019.3 - 0.0 - Partly cloudy 10 - - - -
21/03:00pm 20.1 SSE 13 21 1019.3 - 0.0 - Cloudy 10 - - - -
21/02:30pm 20.8 SSE 12 19 1019.4 - 0.0 - Partly cloudy 10 - - - -
21/02:00pm 20.8 SSE 12 18 1019.5 - 0.0 - Partly cloudy 10 - - - -
21/01:30pm 20.2 SSE 13 21 1019.8 - 0.0 - Partly cloudy 10 - - - -
21/01:00pm 20.6 SSE 13 21 1019.9 - 0.0 - Partly cloudy 10 - - - -
21/12:30pm 20.6 SSE 13 23 1020.2 - 0.0 - Partly cloudy 10 - - - -
21/12:00pm 20.5 SSE 14 20 1020.6 - 0.0 - Mostly cloudy 10 - - - -
21/11:30am 21.0 SE 12 21 1020.8 - 0.0 - Partly cloudy 10 - - - -
21/11:00am 20.2 SE 13 22 1021.2 - 0.0 - Partly cloudy 10 - - - -
21/10:30am 21.2 SSE 9 19 1021.3 - 0.0 - Partly cloudy 10 - - - -
21/10:00am 20.2 S 11 15 1021.4 - 0.0 - Partly cloudy 10 - - - -
21/09:30am 19.3 S 9 13 1021.6 - 0.0 - Cloudy 10 - - - -
21/09:00am 17.9 S 9 15 1021.7 - 0.0 - Mostly cloudy 10 - - - -
21/08:30am 17.6 S 9 14 1021.6 - 0.0 - Partly cloudy 10 - - - -
21/08:00am 16.8 S 8 12 1021.4 - 0.0 - Cloudy 10 - - - -
21/07:30am 16.4 S 8 13 1021.1 - 0.0 - Partly cloudy 10 - - - -
21/07:00am 15.9 S 7 13 1021.0 - 0.0 - Partly cloudy 10 - - - -
21/06:30am 15.6 S 7 11 1020.6 - 0.0 - Partly cloudy 10 - - - -
21/06:00am 15.4 S 8 11 1020.5 - 0.0 - Cloudy 10 - - - -
21/05:30am 15.3 SSW 8 11 1020.1 - 0.0 - Cloudy 10 - - - -
21/05:00am 15.2 SSW 8 11 1019.8 - 0.0 - Cloudy 10 - - - -
21/04:30am 15.3 SSW 7 11 1019.9 - 0.0 - Cloudy 10 - - - -
21/04:00am 15.3 SSW 7 9 1019.7 - 0.0 - Cloudy 10 - - - -
21/03:30am 15.2 SSW 7 10 1019.7 - 0.0 - Partly cloudy 10 - - - -
21/03:00am 14.8 SSW 8 10 1019.7 - 0.0 - Mostly cloudy 10 - - - -
21/02:30am 14.6 SSW 7 9 1019.8 - 0.0 - Cloudy 10 - - - -
21/02:00am 14.5 SW 7 9 1020.1 - 0.0 - Partly cloudy 10 - - - -
21/01:30am 14.5 SW 6 8 1020.2 - 0.0 - Cloudy 10 - - - -
21/01:00am 14.5 SSW 6 8 1020.6 - 0.0 - Cloudy 10 - - - -
21/12:30am 14.0 SW 5 7 1020.4 - 0.0 - Cloudy 10 - - - -
21/12:00am 13.3 SW 5 6 1020.4 - 0.0 - Partly cloudy 10 - - - -
 
Date/Time
EST
Temp

°C
Wind Pressure Rain
since 9am
mm
Weather Cloud Vis
km
Sea
Height
m
Swell
Dir
 
Speed
knots
Gust
knots
hPa Trend Height
m
Period
s
Dir
20/11:30pm 13.3 SW 4 5 1020.4 - 0.0 - - 10 - - - -
20/11:00pm 13.5 SSW 4 5 1020.6 - 0.0 - - 10 - - - -
20/10:30pm 13.8 S 5 6 1020.8 - 0.0 - - 10 - - - -
20/10:00pm 13.4 SSW 4 4 1021.0 - 0.0 - - 10 - - - -
20/09:30pm 13.6 SSW 4 5 1021.1 - 0.0 - - 10 - - - -
20/09:00pm 13.8 SSW 3 4 1020.9 - 0.0 - Mostly cloudy 10 - - - -
20/08:30pm 14.3 S 4 4 1021.0 - 0.0 - - 10 - - - -
20/08:00pm 14.8 S 4 5 1021.0 - 0.0 - - 10 - - - -
20/07:30pm 16.8 SSE 5 7 1020.7 - 0.0 - - 10 - - - -
20/07:00pm 17.4 SE 6 8 1020.4 - 0.0 - - 10 - - - -
20/06:30pm 17.4 SE 5 8 1020.0 - 0.0 - - 10 - - - -
20/06:00pm 18.0 SSE 7 10 1019.7 - 0.0 - - 10 - - - -
20/05:30pm 18.2 SE 7 11 1019.2 - 0.0 - - 10 - - - -
20/05:00pm 19.0 SE 9 15 1018.8 - 0.0 - - 10 - - - -
20/04:30pm 19.7 SE 11 16 1018.3 - 0.0 - - 10 - - - -
20/04:00pm 20.2 SE 10 15 1017.8 - 0.0 - - 10 - - - -
20/03:30pm 20.5 ESE 12 17 1017.6 - 0.0 - - 10 - - - -
20/03:00pm 21.1 SE 10 15 1017.4 - 0.0 - - 10 - - - -
20/02:30pm 21.0 SE 10 18 1017.4 - 0.0 - - 10 - - - -
20/02:00pm 21.6 SE 9 13 1017.5 - 0.0 - Partly cloudy 10 - - - -
20/01:30pm 20.4 ESE 13 17 1017.6 - 0.0 - Partly cloudy 10 - - - -
20/01:00pm 21.4 SSE 10 17 1018.0 - 0.0 - Partly cloudy 10 - - - -
20/12:30pm 21.2 SE 9 13 1018.3 - 0.0 - Partly cloudy 10 - - - -
20/12:00pm 21.1 SSE 10 16 1018.6 - 0.0 - Mostly clear 10 - - - -
20/11:30am 21.1 SSE 11 17 1018.9 - 0.0 - Partly cloudy 10 - - - -
20/11:00am 20.6 SSE 10 16 1019.2 - 0.0 - Partly cloudy 10 - - - -
20/10:30am 20.0 S 8 11 1019.2 - 0.0 - - 10 - - - -
20/10:00am 19.4 S 7 13 1019.4 - 0.0 - - 10 - - - -
20/09:30am 18.2 SSW 7 11 1019.8 - 0.0 - - 10 - - - -
20/09:00am 17.3 SSW 8 11 1019.8 - 0.0 - - 10 - - - -
20/08:30am 15.3 SSW 7 9 1019.7 - 0.0 - - 10 - - - -
20/08:00am 14.3 SSW 6 9 1019.6 - 0.0 - - 10 - - - -

Other Formats:

Comma delimited format used in spreadsheet applications
http://www.bom.gov.au/fwo/IDQ60701/IDQ60701.95565.axf

JavaScript Object Notation format (JSON) in row-major order
http://www.bom.gov.au/fwo/IDQ60701/IDQ60701.95565.json